createdAt,value
2022-07-29T00:02:09.746Z,1.73
2022-07-29T00:04:38.204Z,1.65
2022-07-29T00:07:06.528Z,1.80
2022-07-29T00:09:41.955Z,1.42
2022-07-29T00:12:26.737Z,1.65
2022-07-29T00:14:56.648Z,1.63
2022-07-29T00:17:25.968Z,1.48
2022-07-29T00:19:54.651Z,1.98
2022-07-29T00:22:23.042Z,1.92
2022-07-29T00:24:51.691Z,1.38
2022-07-29T00:27:20.134Z,1.50
2022-07-29T00:29:48.753Z,1.67
2022-07-29T00:32:17.026Z,1.65
2022-07-29T00:35:04.092Z,1.77
2022-07-29T00:37:32.478Z,2.20
2022-07-29T00:40:00.691Z,1.60
2022-07-29T00:42:28.858Z,1.92
2022-07-29T00:44:57.256Z,1.00
2022-07-29T00:47:25.359Z,1.83
2022-07-29T00:49:53.500Z,1.58
2022-07-29T00:52:22.661Z,1.67
2022-07-29T00:54:50.758Z,1.80
2022-07-29T00:57:18.822Z,1.98
2022-07-29T00:59:47.129Z,1.23
2022-07-29T01:02:15.258Z,1.77
2022-07-29T01:04:43.477Z,1.50
2022-07-29T01:07:12.596Z,1.75
2022-07-29T01:09:45.761Z,1.58
2022-07-29T01:12:20.565Z,1.73
2022-07-29T01:14:50.534Z,1.75
2022-07-29T01:17:52.623Z,1.60
2022-07-29T01:20:59.486Z,1.45
2022-07-29T01:23:58.326Z,1.75
2022-07-29T01:26:44.209Z,1.77
2022-07-29T01:29:36.007Z,1.70
2022-07-29T01:32:22.468Z,1.60
2022-07-29T01:35:05.290Z,1.70
2022-07-29T01:37:44.935Z,1.75
2022-07-29T01:40:18.699Z,1.70
2022-07-29T01:42:53.077Z,1.52
2022-07-29T01:46:01.545Z,1.52
2022-07-29T01:48:41.627Z,1.70
2022-07-29T01:51:17.725Z,1.90
2022-07-29T01:54:16.186Z,1.60
2022-07-29T01:56:48.614Z,2.33
2022-07-29T01:59:18.787Z,1.70
2022-07-29T02:01:51.075Z,1.58
2022-07-29T02:04:29.239Z,1.80
2022-07-29T02:07:07.196Z,1.50
2022-07-29T02:09:39.224Z,1.50
2022-07-29T02:12:09.205Z,1.58
2022-07-29T02:14:45.454Z,1.73
2022-07-29T02:17:17.396Z,1.42
2022-07-29T02:19:46.957Z,2.13
2022-07-29T02:22:18.125Z,1.60
2022-07-29T02:24:48.926Z,1.73
2022-07-29T02:27:20.287Z,2.00
2022-07-29T02:29:50.383Z,1.70
2022-07-29T02:32:20.747Z,1.85
2022-07-29T02:34:50.524Z,2.00
2022-07-29T02:37:19.954Z,2.20
2022-07-29T02:39:50.134Z,2.25
2022-07-29T02:42:19.875Z,2.35
2022-07-29T02:44:47.856Z,2.05
2022-07-29T02:47:29.674Z,2.00
2022-07-29T02:50:03.816Z,2.13
2022-07-29T02:52:44.827Z,1.65
2022-07-29T02:55:35.645Z,1.40
2022-07-29T02:58:10.105Z,1.55
2022-07-29T03:00:40.231Z,1.75
2022-07-29T03:03:12.395Z,1.98
2022-07-29T03:05:41.424Z,2.95
2022-07-29T03:08:12.446Z,2.17
2022-07-29T03:10:47.098Z,2.00
2022-07-29T03:13:16.005Z,1.55
2022-07-29T03:15:46.258Z,1.65
2022-07-29T03:18:15.968Z,1.65
2022-07-29T03:20:44.755Z,2.00
2022-07-29T03:23:12.773Z,1.58
2022-07-29T03:25:40.885Z,2.03
2022-07-29T03:28:09.944Z,1.73
2022-07-29T03:30:38.786Z,2.10
2022-07-29T03:33:13.275Z,1.50
2022-07-29T03:35:42.757Z,1.30
2022-07-29T03:38:11.028Z,1.75
2022-07-29T03:40:48.007Z,2.00
2022-07-29T03:43:18.736Z,1.58
2022-07-29T03:45:50.408Z,1.70
2022-07-29T03:48:22.396Z,1.60
2022-07-29T03:50:52.202Z,1.80
2022-07-29T03:53:20.646Z,1.92
2022-07-29T03:55:55.270Z,1.80
2022-07-29T03:58:24.607Z,2.00
2022-07-29T04:00:53.162Z,1.67
2022-07-29T04:03:22.739Z,2.13
2022-07-29T04:06:02.189Z,1.80
2022-07-29T04:08:30.405Z,2.50
2022-07-29T04:10:58.889Z,2.17
2022-07-29T04:13:27.154Z,1.63
2022-07-29T04:15:55.582Z,1.88
2022-07-29T04:18:24.649Z,2.13
2022-07-29T04:20:52.836Z,1.85
2022-07-29T04:23:21.045Z,2.08
2022-07-29T04:25:49.447Z,2.08
2022-07-29T04:28:17.740Z,2.05
2022-07-29T04:30:45.922Z,1.75
2022-07-29T04:33:14.326Z,1.83
2022-07-29T04:35:48.212Z,2.20
2022-07-29T04:38:19.242Z,1.90
2022-07-29T04:40:47.375Z,2.13
2022-07-29T04:43:22.430Z,2.00
2022-07-29T04:45:51.866Z,1.80
2022-07-29T04:48:21.958Z,2.28
2022-07-29T04:50:52.604Z,2.75
2022-07-29T04:53:20.613Z,3.22
2022-07-29T04:55:48.916Z,3.53
2022-07-29T04:58:17.266Z,5.20
2022-07-29T05:00:45.645Z,5.05
2022-07-29T05:03:13.969Z,5.13
2022-07-29T05:05:42.605Z,5.07
2022-07-29T05:08:11.094Z,4.35
2022-07-29T05:10:39.623Z,5.03
2022-07-29T05:13:08.931Z,4.07
2022-07-29T05:15:38.176Z,3.83
2022-07-29T05:18:06.517Z,4.07
2022-07-29T05:20:36.088Z,3.33
2022-07-29T05:23:04.767Z,3.10
2022-07-29T05:25:44.251Z,3.67
2022-07-29T05:28:13.683Z,3.42
2022-07-29T05:30:42.125Z,4.68
2022-07-29T05:33:35.373Z,3.78
2022-07-29T05:36:00.747Z,3.33
2022-07-29T05:38:31.810Z,3.17
2022-07-29T05:41:00.848Z,3.65
2022-07-29T05:43:30.461Z,4.68
2022-07-29T05:45:59.215Z,4.03
2022-07-29T05:48:27.776Z,4.00
2022-07-29T05:50:56.286Z,3.45
2022-07-29T05:53:24.354Z,3.10
2022-07-29T05:55:53.516Z,3.35
2022-07-29T05:58:22.183Z,3.88
2022-07-29T06:00:50.717Z,2.92
2022-07-29T06:03:19.188Z,3.58
2022-07-29T06:05:47.320Z,3.25
2022-07-29T06:08:15.438Z,3.03
2022-07-29T06:10:43.826Z,3.10
2022-07-29T06:13:11.867Z,3.30
2022-07-29T06:15:40.316Z,2.47
2022-07-29T06:18:11.135Z,2.80
2022-07-29T06:20:39.289Z,2.80
2022-07-29T06:23:07.616Z,3.88
2022-07-29T06:25:37.918Z,3.95
2022-07-29T06:28:06.114Z,3.65
2022-07-29T06:30:34.364Z,3.65
2022-07-29T06:33:03.359Z,2.35
2022-07-29T06:35:41.118Z,3.47
2022-07-29T06:38:29.977Z,4.20
2022-07-29T06:41:11.381Z,4.45
2022-07-29T06:43:50.661Z,4.63
2022-07-29T06:46:22.158Z,5.13
2022-07-29T06:48:53.113Z,5.30
2022-07-29T06:51:23.912Z,5.00
2022-07-29T06:53:58.192Z,4.70
2022-07-29T06:56:28.389Z,4.30
2022-07-29T06:58:56.893Z,4.70
2022-07-29T07:01:25.069Z,4.65
2022-07-29T07:03:53.367Z,5.32
2022-07-29T07:06:21.838Z,4.07
2022-07-29T07:08:50.019Z,5.68
2022-07-29T07:11:18.110Z,4.90
2022-07-29T07:13:46.513Z,5.72
2022-07-29T07:16:14.746Z,4.57
2022-07-29T07:18:42.951Z,5.07
2022-07-29T07:21:11.400Z,5.10
2022-07-29T07:23:47.826Z,5.40
2022-07-29T07:26:16.889Z,4.35
2022-07-29T07:28:45.037Z,4.68
2022-07-29T07:31:13.416Z,4.47
2022-07-29T07:33:41.800Z,3.92
2022-07-29T07:36:10.253Z,3.40
2022-07-29T07:38:38.371Z,3.85
2022-07-29T07:41:06.888Z,3.25
2022-07-29T07:43:35.193Z,3.60
2022-07-29T07:46:03.622Z,3.28
2022-07-29T07:48:32.118Z,2.97
2022-07-29T07:51:00.159Z,3.45
2022-07-29T07:53:31.126Z,3.53
2022-07-29T07:56:11.099Z,3.22
2022-07-29T07:58:40.504Z,2.67
2022-07-29T08:01:10.517Z,3.72
2022-07-29T08:03:40.130Z,3.83
2022-07-29T08:06:09.191Z,4.07
2022-07-29T08:08:37.518Z,3.22
2022-07-29T08:11:09.532Z,3.33
2022-07-29T08:13:39.704Z,3.55
2022-07-29T08:16:13.546Z,2.85
2022-07-29T08:18:44.755Z,2.80
2022-07-29T08:21:15.678Z,2.40
2022-07-29T08:24:00.786Z,2.78
2022-07-29T08:26:29.932Z,2.70
2022-07-29T08:28:58.136Z,1.90
2022-07-29T08:31:26.408Z,3.08
2022-07-29T08:33:54.487Z,3.22
2022-07-29T08:36:26.141Z,2.35
2022-07-29T08:38:54.287Z,2.40
2022-07-29T08:41:23.286Z,2.15
2022-07-29T08:43:53.151Z,2.78
2022-07-29T08:46:22.613Z,2.90
2022-07-29T08:48:51.626Z,2.25
2022-07-29T08:51:22.056Z,2.90
2022-07-29T08:53:51.911Z,3.20
2022-07-29T08:56:20.907Z,3.17
2022-07-29T08:58:51.680Z,3.53
2022-07-29T09:01:36.049Z,2.90
2022-07-29T09:04:07.515Z,3.75
2022-07-29T09:06:38.227Z,3.33
2022-07-29T09:09:06.620Z,3.53
2022-07-29T09:11:35.023Z,3.60
2022-07-29T09:14:03.029Z,3.20
2022-07-29T09:16:57.628Z,3.17
2022-07-29T09:19:32.062Z,3.50
2022-07-29T09:22:03.721Z,2.97
2022-07-29T09:24:35.767Z,3.20
2022-07-29T09:27:22.415Z,3.00
2022-07-29T09:30:06.197Z,3.20
2022-07-29T09:32:54.823Z,3.10
2022-07-29T09:35:25.385Z,2.97
2022-07-29T09:37:53.740Z,3.50
2022-07-29T09:40:29.514Z,3.65
2022-07-29T09:42:58.715Z,3.60
2022-07-29T09:45:32.917Z,3.40
2022-07-29T09:48:18.618Z,3.47
2022-07-29T09:50:50.887Z,3.58
2022-07-29T09:53:37.570Z,3.33
2022-07-29T09:56:07.016Z,3.67
2022-07-29T09:58:35.824Z,3.17
2022-07-29T10:01:05.179Z,3.30
2022-07-29T10:03:33.652Z,3.42
2022-07-29T10:06:14.759Z,3.67
2022-07-29T10:08:43.617Z,3.53
2022-07-29T10:11:20.435Z,2.97
2022-07-29T10:13:49.900Z,2.60
2022-07-29T10:16:19.154Z,3.17
2022-07-29T10:18:48.079Z,3.45
2022-07-29T10:21:22.547Z,3.50
2022-07-29T10:24:06.179Z,3.00
2022-07-29T10:26:34.997Z,2.85
2022-07-29T10:29:03.129Z,2.80
2022-07-29T10:31:44.529Z,3.63
2022-07-29T10:34:20.818Z,4.13
2022-07-29T10:37:11.338Z,3.65
2022-07-29T10:39:49.962Z,3.42
2022-07-29T10:42:29.688Z,2.85
2022-07-29T10:45:05.818Z,3.05
2022-07-29T10:47:35.559Z,3.58
2022-07-29T10:50:07.487Z,3.25
2022-07-29T10:52:51.268Z,3.53
2022-07-29T10:55:49.798Z,2.90
2022-07-29T10:58:26.631Z,3.70
2022-07-29T11:00:56.401Z,3.45
2022-07-29T11:03:50.751Z,3.40
2022-07-29T11:06:26.666Z,3.03
2022-07-29T11:09:35.315Z,2.80
2022-07-29T11:12:45.348Z,2.92
2022-07-29T11:15:20.336Z,3.28
2022-07-29T11:17:59.511Z,3.20
2022-07-29T11:20:50.247Z,2.70
2022-07-29T11:23:26.098Z,3.28
2022-07-29T11:26:18.910Z,3.50
2022-07-29T11:28:55.915Z,3.58
2022-07-29T11:31:37.938Z,3.17
2022-07-29T11:37:19.965Z,2.80
2022-07-29T11:39:54.383Z,3.17
2022-07-29T11:42:28.216Z,3.17
2022-07-29T11:45:41.659Z,2.90
2022-07-29T11:48:03.688Z,2.83
2022-07-29T11:53:37.397Z,2.63
2022-07-29T11:56:09.516Z,2.70
2022-07-29T11:58:40.296Z,3.25
2022-07-29T12:01:09.127Z,3.20
2022-07-29T12:03:37.370Z,2.85
2022-07-29T12:06:17.990Z,3.20
2022-07-29T12:07:02.230Z,3.13
2022-07-29T12:08:47.537Z,3.42
2022-07-29T12:11:23.405Z,3.20
2022-07-29T12:13:52.909Z,3.03
2022-07-29T12:16:29.379Z,2.92
2022-07-29T12:19:00.212Z,3.30
2022-07-29T12:21:28.715Z,2.78
2022-07-29T12:24:03.497Z,2.83
2022-07-29T12:26:38.079Z,2.97
2022-07-29T12:29:11.597Z,2.78
2022-07-29T12:31:45.818Z,3.08
2022-07-29T12:34:16.549Z,3.40
2022-07-29T12:36:45.017Z,2.95
2022-07-29T12:39:13.952Z,3.00
2022-07-29T12:41:42.417Z,2.75
2022-07-29T12:44:10.937Z,2.67
2022-07-29T12:46:39.679Z,2.83
2022-07-29T12:49:08.256Z,2.50
2022-07-29T12:51:39.422Z,2.70
2022-07-29T12:54:14.761Z,2.88
2022-07-29T12:56:45.623Z,2.85
2022-07-29T12:59:17.939Z,2.67
2022-07-29T13:01:50.444Z,2.28
2022-07-29T13:04:34.548Z,2.78
2022-07-29T13:07:09.148Z,2.40
2022-07-29T13:09:44.444Z,2.80
2022-07-29T13:12:14.928Z,2.50
2022-07-29T13:14:48.068Z,2.80
2022-07-29T13:17:24.443Z,2.83
2022-07-29T13:19:55.075Z,2.92
2022-07-29T13:22:25.337Z,2.70
2022-07-29T13:24:59.540Z,2.65
2022-07-29T13:27:33.462Z,2.65
2022-07-29T13:30:03.441Z,2.65
2022-07-29T13:32:32.919Z,3.03
2022-07-29T13:35:05.453Z,3.03
2022-07-29T13:37:36.250Z,2.70
2022-07-29T13:40:05.350Z,3.40
2022-07-29T13:42:34.077Z,2.90
2022-07-29T13:45:04.096Z,2.95
2022-07-29T13:47:33.298Z,2.78
2022-07-29T13:50:03.093Z,2.83
2022-07-29T13:52:31.608Z,2.72
2022-07-29T13:54:59.660Z,2.70
2022-07-29T13:57:29.218Z,2.78
2022-07-29T13:59:58.488Z,2.75
2022-07-29T14:02:26.668Z,3.03
2022-07-29T14:04:55.804Z,3.15
2022-07-29T14:07:25.116Z,2.83
2022-07-29T14:09:53.329Z,3.05
2022-07-29T14:12:22.318Z,4.35
2022-07-29T14:14:50.698Z,3.15
2022-07-29T14:17:18.842Z,2.88
2022-07-29T14:19:46.979Z,2.92
2022-07-29T14:22:15.497Z,3.20
2022-07-29T14:25:17.168Z,2.65
2022-07-29T14:27:45.457Z,2.65
2022-07-29T14:30:14.042Z,3.35
2022-07-29T14:32:42.451Z,3.55
2022-07-29T14:35:10.891Z,3.38
2022-07-29T14:37:40.624Z,3.40
2022-07-29T14:40:10.908Z,3.17
2022-07-29T14:42:40.125Z,3.10
2022-07-29T14:45:10.212Z,3.00
2022-07-29T14:47:39.851Z,3.17
2022-07-29T14:50:09.596Z,3.08
2022-07-29T14:52:37.953Z,3.35
2022-07-29T14:55:16.613Z,2.97
2022-07-29T14:57:49.585Z,3.60
2022-07-29T15:00:18.983Z,4.55
2022-07-29T15:03:01.513Z,3.53
2022-07-29T15:05:32.655Z,3.17
2022-07-29T15:08:01.013Z,2.90
2022-07-29T15:10:29.757Z,2.97
2022-07-29T15:12:58.488Z,2.72
2022-07-29T15:15:27.398Z,2.80
2022-07-29T15:17:55.878Z,3.05
2022-07-29T15:20:26.477Z,3.28
2022-07-29T15:22:56.697Z,3.40
2022-07-29T15:25:25.955Z,2.97
2022-07-29T15:28:01.159Z,2.78
2022-07-29T15:30:34.280Z,3.17
2022-07-29T15:33:04.570Z,2.88
2022-07-29T15:35:32.979Z,3.13
2022-07-29T15:38:00.994Z,3.30
2022-07-29T15:40:31.437Z,3.55
2022-07-29T15:43:06.912Z,3.05
2022-07-29T15:45:41.039Z,3.20
2022-07-29T15:48:14.595Z,3.08
2022-07-29T15:50:47.031Z,3.08
2022-07-29T15:53:15.669Z,3.40
2022-07-29T15:55:44.426Z,3.00
2022-07-29T15:58:13.305Z,3.30
2022-07-29T16:00:41.591Z,3.75
2022-07-29T16:03:09.802Z,3.47
2022-07-29T16:05:38.469Z,3.38
2022-07-29T16:08:07.119Z,3.78
2022-07-29T16:10:37.283Z,4.03
2022-07-29T16:13:05.577Z,4.53
2022-07-29T16:15:33.971Z,4.20
2022-07-29T16:18:02.038Z,4.38
2022-07-29T16:20:31.478Z,5.57
2022-07-29T16:22:59.556Z,5.60
2022-07-29T16:25:50.258Z,5.20
2022-07-29T16:28:17.159Z,4.97
2022-07-29T16:30:45.148Z,5.15
2022-07-29T16:33:13.191Z,5.20
2022-07-29T16:35:43.088Z,5.75
2022-07-29T16:38:10.967Z,7.00
2022-07-29T16:40:39.106Z,6.80
2022-07-29T16:43:07.612Z,9.68
2022-07-29T16:45:46.047Z,7.50
2022-07-29T16:48:18.089Z,7.85
2022-07-29T16:50:46.914Z,6.13
2022-07-29T16:53:15.080Z,6.45
2022-07-29T16:55:43.063Z,7.03
2022-07-29T16:58:11.861Z,7.22
2022-07-29T17:00:41.714Z,7.70
2022-07-29T17:03:09.634Z,8.52
2022-07-29T17:05:52.803Z,7.97
2022-07-29T17:08:23.392Z,6.75
2022-07-29T17:10:51.448Z,6.60
2022-07-29T17:13:19.642Z,6.90
2022-07-29T17:15:48.143Z,5.75
2022-07-29T17:18:16.137Z,6.05
2022-07-29T17:20:44.238Z,5.97
2022-07-29T17:23:12.327Z,5.50
2022-07-29T17:25:40.732Z,4.88
2022-07-29T17:28:08.607Z,5.75
2022-07-29T17:30:36.742Z,5.60
2022-07-29T17:33:04.641Z,4.45
2022-07-29T17:35:50.933Z,3.70
2022-07-29T17:38:19.087Z,4.07
2022-07-29T17:40:46.902Z,4.30
2022-07-29T17:43:14.771Z,4.18
2022-07-29T17:45:50.101Z,3.25
2022-07-29T17:48:20.089Z,3.38
2022-07-29T17:50:48.771Z,3.58
2022-07-29T17:53:17.080Z,3.50
2022-07-29T17:55:46.589Z,3.65
2022-07-29T17:58:15.928Z,3.70
2022-07-29T18:00:44.021Z,3.38
2022-07-29T18:03:12.110Z,3.90
2022-07-29T18:05:41.190Z,3.30
2022-07-29T18:08:09.386Z,3.75
2022-07-29T18:10:37.498Z,5.13
2022-07-29T18:13:05.727Z,4.10
2022-07-29T18:15:33.827Z,3.47
2022-07-29T18:18:01.752Z,4.30
2022-07-29T18:20:29.872Z,3.70
2022-07-29T18:22:57.934Z,4.80
2022-07-29T18:25:26.888Z,3.60
2022-07-29T18:27:59.888Z,3.80
2022-07-29T18:30:30.323Z,3.50
2022-07-29T18:33:20.210Z,4.00
2022-07-29T18:35:48.902Z,3.63
2022-07-29T18:38:17.262Z,3.78
2022-07-29T18:40:46.236Z,3.83
2022-07-29T18:43:17.386Z,4.40
2022-07-29T18:45:45.669Z,4.32
2022-07-29T18:48:13.761Z,5.45
2022-07-29T18:50:42.716Z,3.58
2022-07-29T18:53:10.926Z,3.80
2022-07-29T18:55:38.967Z,4.05
2022-07-29T18:58:06.940Z,3.90
2022-07-29T19:00:35.826Z,4.22
2022-07-29T19:03:04.278Z,3.28
2022-07-29T19:05:33.026Z,4.35
2022-07-29T19:08:01.087Z,3.90
2022-07-29T19:10:29.616Z,4.78
2022-07-29T19:13:00.831Z,5.17
2022-07-29T19:15:29.447Z,4.90
2022-07-29T19:18:00.941Z,5.40
2022-07-29T19:20:29.770Z,5.72
2022-07-29T19:22:58.767Z,5.28
2022-07-29T19:25:26.971Z,4.90
2022-07-29T19:27:55.279Z,4.45
2022-07-29T19:30:23.758Z,5.05
2022-07-29T19:32:51.918Z,4.13
2022-07-29T19:35:28.541Z,5.22
2022-07-29T19:37:59.288Z,4.00
2022-07-29T19:40:28.619Z,4.68
2022-07-29T19:42:57.122Z,4.35
2022-07-29T19:45:26.346Z,3.95
2022-07-29T19:48:00.723Z,4.00
2022-07-29T19:50:30.441Z,3.90
2022-07-29T19:52:58.815Z,4.20
2022-07-29T19:55:27.803Z,4.68
2022-07-29T19:57:56.581Z,4.80
2022-07-29T20:00:26.349Z,4.60
2022-07-29T20:02:57.573Z,5.00
2022-07-29T20:05:28.548Z,5.07
2022-07-29T20:07:57.160Z,4.53
2022-07-29T20:10:25.833Z,4.57
2022-07-29T20:12:55.217Z,5.55
2022-07-29T20:15:23.660Z,4.60
2022-07-29T20:17:56.737Z,5.68
2022-07-29T20:20:26.274Z,4.43
2022-07-29T20:22:54.682Z,4.07
2022-07-29T20:25:23.736Z,4.70
2022-07-29T20:27:55.341Z,4.55
2022-07-29T20:30:23.767Z,4.70
2022-07-29T20:32:51.960Z,5.13
2022-07-29T20:35:22.588Z,4.70
2022-07-29T20:37:56.238Z,4.43
2022-07-29T20:40:26.557Z,5.15
2022-07-29T20:42:55.529Z,5.28
2022-07-29T20:45:24.172Z,5.30
2022-07-29T20:47:53.217Z,5.50
2022-07-29T20:50:23.834Z,5.47
2022-07-29T20:52:54.132Z,5.07
2022-07-29T20:55:22.224Z,5.82
2022-07-29T20:57:50.331Z,5.65
2022-07-29T21:00:18.813Z,5.85
2022-07-29T21:02:47.614Z,5.63
2022-07-29T21:05:16.193Z,6.07
2022-07-29T21:07:44.610Z,6.25
2022-07-29T21:10:14.499Z,6.50
2022-07-29T21:12:42.518Z,6.70
2022-07-29T21:15:13.740Z,6.55
2022-07-29T21:17:48.789Z,6.70
2022-07-29T21:20:19.178Z,6.10
2022-07-29T21:22:47.436Z,4.60
2022-07-29T21:25:15.624Z,4.75
2022-07-29T21:28:02.435Z,5.13
2022-07-29T21:30:30.504Z,4.45
2022-07-29T21:32:59.100Z,4.20
2022-07-29T21:36:01.818Z,3.95
2022-07-29T21:38:19.253Z,4.00
2022-07-29T21:40:50.675Z,3.65
2022-07-29T21:43:19.744Z,4.35
2022-07-29T21:45:50.509Z,3.70
2022-07-29T21:48:20.175Z,4.05
2022-07-29T21:50:49.554Z,4.65
2022-07-29T21:53:22.190Z,4.32
2022-07-29T21:55:55.420Z,4.57
2022-07-29T21:58:25.047Z,4.50
2022-07-29T22:00:54.082Z,3.53
2022-07-29T22:03:22.267Z,3.60
2022-07-29T22:05:50.308Z,3.55
2022-07-29T22:08:21.594Z,3.67
2022-07-29T22:10:49.845Z,3.70
2022-07-29T22:13:17.967Z,3.33
2022-07-29T22:15:47.273Z,3.75
2022-07-29T22:18:20.383Z,3.50
2022-07-29T22:20:50.632Z,3.13
2022-07-29T22:23:18.947Z,3.58
2022-07-29T22:25:47.105Z,3.50
2022-07-29T22:28:15.452Z,3.97
2022-07-29T22:30:43.660Z,3.05
2022-07-29T22:33:17.500Z,4.10
2022-07-29T22:35:48.452Z,3.45
2022-07-29T22:38:18.893Z,2.90
2022-07-29T22:40:48.756Z,3.58
2022-07-29T22:43:19.062Z,3.55
2022-07-29T22:45:47.354Z,3.92
2022-07-29T22:48:15.844Z,3.15
2022-07-29T22:50:44.101Z,3.35
2022-07-29T22:53:12.355Z,3.33
2022-07-29T22:55:40.742Z,3.13
2022-07-29T22:58:08.831Z,3.42
2022-07-29T23:00:37.040Z,3.10
2022-07-29T23:03:05.426Z,3.20
2022-07-29T23:05:33.774Z,3.38
2022-07-29T23:08:01.907Z,2.90
2022-07-29T23:10:30.440Z,2.92
2022-07-29T23:13:23.444Z,3.70
2022-07-29T23:15:51.873Z,3.05
2022-07-29T23:18:20.084Z,3.17
2022-07-29T23:20:48.287Z,2.85
2022-07-29T23:23:17.176Z,3.40
2022-07-29T23:25:45.355Z,2.78
2022-07-29T23:28:14.534Z,2.72
2022-07-29T23:30:43.565Z,3.20
2022-07-29T23:33:11.676Z,2.72
2022-07-29T23:35:39.924Z,2.55
2022-07-29T23:38:08.483Z,2.50
2022-07-29T23:40:36.753Z,2.90
2022-07-29T23:43:08.476Z,2.65
2022-07-29T23:45:44.469Z,2.55
2022-07-29T23:48:14.906Z,2.47
2022-07-29T23:50:43.260Z,2.47
2022-07-29T23:53:12.523Z,2.42
2022-07-29T23:55:40.694Z,2.05
2022-07-29T23:58:09.096Z,3.03
